Buoy 25593

sailwx.info

Track history (hours):
 
Tides and Currents Weather Stations Pressure Air Temp Water Temp Dewpoint Dewpoint Depression Visibility Wind Speed Wind Dir Waves Ship Positions

Drifting buoy 25593

Last reported at 2010-Jun-28 18:00 UTC. Time now 2020-Jan-20 21:04 UTC.
Position N 85°49' E 049°50'.
Warning: this ship's position is years out of date!

Barometer 1019.3 mb
Air temperature -26.3 ° C

Date/timePositionNaut miles runAvg speedWind from/ knotsBaromVisibWave heightAir tempDewpointWater temp
2010-Jun-28 18:00N 85°49' E 049°50'1 0.6 1019.3 -26.3
2010-Jun-28 17:00N 85°49' E 049°55'0 0.3 1019.2 -26.3
2010-Jun-28 16:00N 85°49' E 049°57'0 0.3 1019.2 -26.3
2010-Jun-28 15:00N 85°49' E 050°00'0 0.3 1019.0 -26.3
2010-Jun-28 14:00N 85°49' E 050°04'0 0.3 1019.1 -26.3
2010-Jun-28 13:00N 85°50' E 050°08'0 0.3 1018.9 -26.3
2010-Jun-28 12:00N 85°50' E 050°12'0 0.3 1019.0 -26.4
2010-Jun-28 11:00N 85°50' E 050°16'0 0.3 1019.1 -26.5
2010-Jun-28 10:00N 85°50' E 050°20'0 0.3 1018.9 26.5
2010-Jun-28 09:00N 85°50' E 050°25'0 0.3 1018.6 -26.4
2010-Jun-28 08:00N 85°50' E 050°29'0 0.3 1018.6 -26.4
2010-Jun-28 07:00N 85°50' E 050°33'0 0.3 1018.5 -26.2
2010-Jun-28 06:00N 85°50' E 050°38'1 0.3 1018.5 -26.1
2010-Jun-28 04:00N 85°50' E 050°45'0 0.3 1018.8 -26.1
2010-Jun-28 03:00N 85°50' E 050°49'0 0.3 1018.9 -26.2
2010-Jun-28 02:00N 85°51' E 050°53'0 0.3 1019.0 -26.4
2010-Jun-28 01:00N 85°51' E 050°56'0 0.3 1019.1 -26.4
2010-Jun-28 00:00N 85°51' E 050°60'0 0.3 1019.4 26.3
2010-Jun-27 23:00N 85°51' E 051°04'0 0.3 1019.4 -26.3
2010-Jun-27 22:00N 85°51' E 051°08'0 0.3 1019.6 -26.2
2010-Jun-27 21:00N 85°51' E 051°11'0 0.3 1019.7 -26.3
2010-Jun-27 20:00N 85°51' E 051°15'0 0.3 1019.8 -26.5
2010-Jun-27 19:00N 85°51' E 051°19'0 0.3 1020.0 -26.5
2010-Jun-27 18:00N 85°51' E 051°23'0 0.3 1019.9 -26.6
2010-Jun-27 17:00N 85°51' E 051°26'0 0.3 1020.1 -26.5
2010-Jun-27 16:00N 85°51' E 051°29'0 0.3 1020.2 -26.3
2010-Jun-27 15:00N 85°52' E 051°33'0 0.2 1020.3 26.3
2010-Jun-27 14:00N 85°52' E 051°36'0 0.3 1020.2 -26.3
2010-Jun-27 13:00N 85°52' E 051°39'0 0.3 1020.2 -26.4
2010-Jun-27 12:00N 85°52' E 051°43'0 0.3 1020.3 -26.2
2010-Jun-27 11:00N 85°52' E 051°46'0 0.3 1020.4 -26.0
2010-Jun-27 10:00N 85°52' E 051°50'0 0.3 1020.5 25.9
2010-Jun-27 09:00N 85°52' E 051°54'0 0.3 1020.3 -25.8
2010-Jun-27 08:00N 85°52' E 051°57'0 0.3 1020.3 -25.3
2010-Jun-27 07:00N 85°52' E 052°01'0 0.5 1020.4 -25.3
2010-Jun-27 06:00N 85°53' E 052°07'0 0.1 1020.3 -25.5
2010-Jun-27 05:00N 85°53' E 052°08'0 0.3 1020.4 -25.6
2010-Jun-27 04:00N 85°53' E 052°12'0 0.3 1020.4 -25.7
2010-Jun-27 03:00N 85°53' E 052°15'0 0.3 1020.6 -25.6
2010-Jun-27 02:00N 85°53' E 052°19'0 0.3 1020.8 -25.5
2010-Jun-27 01:00N 85°53' E 052°22'0 0.3 1020.8 -25.4
2010-Jun-27 00:00N 85°53' E 052°26'0 0.3 1020.6 -25.3
2010-Jun-26 23:00N 85°53' E 052°30'0 0.3 1020.6 -25.2
2010-Jun-26 22:00N 85°53' E 052°34'0 0.3 1020.5 -25.1
2010-Jun-26 21:00N 85°54' E 052°38'0 0.3 1020.3 -24.8
2010-Jun-26 20:00N 85°54' E 052°42'0 0.3 1020.2 25.2
2010-Jun-26 19:00N 85°54' E 052°46'0 0.3 1020.0 -25.5
2010-Jun-26 18:00N 85°54' E 052°50'1 0.6 1019.9 -25.8
2010-Jun-26 17:00N 85°54' E 052°56'0 0.2 1019.7 -26.0
2010-Jun-26 16:00N 85°54' E 052°57'0 0.3 1019.5 -26.1
2010-Jun-26 15:00N 85°54' E 053°01'0 0.3 1019.5 -26.2
2010-Jun-26 14:00N 85°54' E 053°05'0 0.3 1019.2 -26.6
2010-Jun-26 13:00N 85°55' E 053°08'2 0.3 1019.1 -26.2
2010-Jun-26 06:00N 85°56' E 053°32'0 0.0 1017.8 -26.0
2010-Jun-26 05:00N 85°56' E 053°32'1 0.2 1017.7 -26.0
2010-Jun-26 01:00N 85°56' E 053°41'0 0.2 1017.1 -26.2
2010-Jun-26 00:00N 85°57' E 053°44'1212.2 1016.6 -26.1
2010-Jun-25 23:00N 85°44' E 053°46'1212.4 1016.5 -26.2
2010-Jun-25 22:00N 85°57' E 053°49'0 0.2 1016.3 -26.1
2010-Jun-25 21:00N 85°57' E 053°52'0 0.2 1016.2 -26.2
2010-Jun-25 20:00N 85°57' E 053°55'0 0.2 1015.6 -26.2
2010-Jun-25 19:00N 85°57' E 053°58'0 0.2 1015.2 -26.1
2010-Jun-25 18:00N 85°57' E 054°01'0 0.2 1014.8 -26.1
2010-Jun-25 17:00N 85°57' E 054°03'0 0.2 1014.8 -26.1
2010-Jun-25 16:00N 85°57' E 054°06'0 0.2 1014.4 26.0
2010-Jun-25 15:00N 85°57' E 054°09'0 0.2 1014.3 -25.9
2010-Jun-25 14:00N 85°57' E 054°11'0 0.2 1014.0 -25.7
2010-Jun-25 13:00N 85°57' E 054°14'0 0.2 1013.7 -25.6
2010-Jun-25 12:00N 85°57' E 054°16'0 0.2 1013.5 -25.4
2010-Jun-25 11:00N 85°57' E 054°19'0 0.2 1013.0 -25.5
2010-Jun-25 10:00N 85°58' E 054°22'0 0.2 1012.7 -25.4
2010-Jun-25 09:00N 85°58' E 054°24'0 0.2 1012.2 25.4
2010-Jun-25 08:00N 85°58' E 054°27'0 0.2 1011.8 -25.2
2010-Jun-25 07:00N 85°58' E 054°30'0 0.2 1011.2 -25.3
2010-Jun-25 06:00N 85°58' E 054°32'0 0.2 1010.9 -25.6
2010-Jun-25 05:00N 85°58' E 054°35'0 0.2 1010.6 -25.8
2010-Jun-25 04:00N 85°58' E 054°37'0 0.2 1010.1 -25.9
2010-Jun-25 03:00N 85°58' E 054°40'0 0.2 1010.0 -26.0
2010-Jun-25 02:00N 85°58' E 054°42'0 0.2 1009.8 -26.1
2010-Jun-25 01:00N 85°58' E 054°44'0 0.2 1009.5 -26.2
2010-Jun-25 00:00N 85°58' E 054°46'0 0.1 1009.2 -26.2
2010-Jun-24 23:00N 85°58' E 054°48'0 0.2 1009.1 -26.2
2010-Jun-24 22:00N 85°58' E 054°50'0 0.2 1008.9 -26.2
2010-Jun-24 21:00N 85°58' E 054°52'0 0.2 1008.7 -26.3
2010-Jun-24 20:00N 85°58' E 054°54'0 0.2 1008.5 -26.3
2010-Jun-24 19:00N 85°58' E 054°57'0 0.2 1008.3 -26.3
2010-Jun-24 18:00N 85°58' E 054°60'0 0.2 1008.0 -26.3
2010-Jun-24 17:00N 85°58' E 055°02'0 0.2 1007.9 -26.4
2010-Jun-24 16:00N 85°59' E 055°05'0 0.2 1008.0 -26.4
2010-Jun-24 15:00N 85°59' E 055°08'0 0.2 1008.0 26.4
2010-Jun-24 14:00N 85°59' E 055°11'0 0.2 1007.9 -26.3
2010-Jun-24 13:00N 85°59' E 055°13'0 0.3 1007.7 -26.4
2010-Jun-24 12:00N 85°59' E 055°16'0 0.2 1007.8 -26.3
2010-Jun-24 11:00N 85°59' E 055°19'1 0.3 1007.6 -26.3
2010-Jun-24 09:00N 85°59' E 055°26'0 0.3 1007.4 -26.6
2010-Jun-24 08:00N 85°59' E 055°30'0 0.3 1007.1 -26.6
2010-Jun-24 07:00N 85°59' E 055°35'0 0.3 1006.9 -26.6
2010-Jun-24 06:00N 85°60' E 055°39'1 0.3 1006.7 -26.6
2010-Jun-24 04:00N 85°60' E 055°48'0 0.3 1006.9 -26.6
2010-Jun-24 03:00N 85°60' E 055°52'0 0.3 1007.1 -26.6
2010-Jun-24 02:00N 86°00' E 055°56'0 0.3 1007.3 -26.6
2010-Jun-24 01:00N 86°00' E 055°59'0 0.3 1007.8 -26.6
2010-Jun-24 00:00N 86°00' E 056°03'0 0.3 1008.3 -26.6
2010-Jun-23 23:00N 86°00' E 056°06'1 0.3 1008.8 -26.6
2010-Jun-23 21:00N 86°01' E 056°14'0 0.3 1009.9 -26.6
2010-Jun-23 20:00N 86°01' E 056°17'0 0.3 1010.4 -26.6
2010-Jun-23 19:00N 86°01' E 056°21'0 0.3 1010.2 -26.6
2010-Jun-23 18:00N 86°01' E 056°25'0 0.3 1010.4 -26.6
2010-Jun-23 17:00N 86°01' E 056°30'0 0.3 1010.7 -26.6
2010-Jun-23 16:00N 86°01' E 056°34'0 0.3 1010.9 -26.6
2010-Jun-23 15:00N 86°01' E 056°38'0 0.3 1011.2 -26.6
2010-Jun-23 14:00N 86°02' E 056°42'0 0.3 1011.4 -26.6
2010-Jun-23 13:00N 86°02' E 056°46'1 0.3 1011.5 -26.6
2010-Jun-23 11:00N 86°02' E 056°53'0 0.2 1011.9 -26.3
2010-Jun-23 10:00N 86°02' E 056°57'0 0.3 1011.9 -26.2
2010-Jun-23 09:00N 86°02' E 057°00'0 0.2 1012.3 -26.6
2010-Jun-23 08:00N 86°02' E 057°04'0 0.2 1012.6 -25.8
2010-Jun-23 06:00N 86°02' E 057°10'0 0.2 1012.7 -25.0
2010-Jun-23 05:00N 86°02' E 057°13'0 0.2 1012.8 -24.8
2010-Jun-23 04:00N 86°02' E 057°16'0 0.2 1012.7 -25.0
2010-Jun-23 03:00N 86°02' E 057°18'0 0.2 1012.9 -25.4
2010-Jun-23 02:00N 86°02' E 057°21'0 0.2 1013.1 -26.1
2010-Jun-23 01:00N 86°02' E 057°24'0 0.2 1012.9 -26.2
2010-Jun-22 23:00N 86°02' E 057°29'0 0.2 1012.6 -26.6
2010-Jun-22 22:00N 86°02' E 057°31'0 0.2 1012.4 -26.6
2010-Jun-22 21:00N 86°02' E 057°34'0 0.2 1012.0 -26.6
2010-Jun-22 20:00N 86°02' E 057°37'0 0.3 1011.7 -26.6
2010-Jun-22 19:00N 86°02' E 057°40'0 0.3 1011.3 -26.6
2010-Jun-22 18:00N 86°01' E 057°44'0 0.3 1011.0 -26.6
2010-Jun-22 17:00N 86°01' E 057°49'0 0.4 1010.6 -26.6
2010-Jun-22 16:00N 86°01' E 057°53'0 0.4 1010.2 -26.6
2010-Jun-22 15:00N 86°01' E 057°58'0 0.4 1009.9 -26.6
2010-Jun-22 14:00N 86°01' E 058°03'0 0.4 1009.5 -26.5
2010-Jun-22 13:00N 86°00' E 058°08'439219.7 1009.2 -26.3
2010-Jun-22 11:00N 86°00' E 163°10'439438.6 1008.7 -26.2
2010-Jun-22 10:00N 85°60' E 058°25'0 0.5 1008.5 -26.1
2010-Jun-22 09:00N 85°60' E 058°31'0 0.5 1008.6 -26.1
2010-Jun-22 08:00N 85°60' E 058°38'0 0.5 1008.7 -26.2
2010-Jun-22 07:00N 85°60' E 058°45'0 0.5 1008.8 -26.2
2010-Jun-22 06:00N 85°60' E 058°51'0 0.5 1009.1 -26.5
2010-Jun-22 05:00N 85°60' E 058°58'0 0.4 1009.3 -26.4
2010-Jun-22 04:00N 85°60' E 059°04'0 0.4 1009.5 -26.2
2010-Jun-22 03:00N 85°60' E 059°10'0 0.4 1009.8 -25.8
2010-Jun-22 02:00N 85°60' E 059°16'0 0.3 1010.1 -25.8
2010-Jun-22 01:00N 85°60' E 059°21'0 0.3 1010.2 -26.0
2010-Jun-22 00:00N 85°60' E 059°25'0 0.3 1010.3 -26.2
2010-Jun-21 23:00N 85°60' E 059°30'0 0.3 1010.5 -26.2
2010-Jun-21 22:00N 85°60' E 059°34'0 0.3 1010.6 -26.2
2010-Jun-21 21:00N 85°60' E 059°39'0 0.4 1010.8 -26.3
2010-Jun-21 20:00N 85°60' E 059°44'0 0.4 1011.1 -26.5
2010-Jun-21 19:00N 86°00' E 059°48'1 0.4 1011.4 -26.6
2010-Jun-21 17:00N 86°01' E 059°56'0 0.4 1012.4 -26.6
2010-Jun-21 16:00N 86°01' E 059°59'0 0.4 1013.5 -26.6
2010-Jun-21 15:00N 86°02' E 060°02'1 0.4 1014.5 -26.6
2010-Jun-21 13:00N 86°02' E 060°07'0 0.3 1016.2 -25.8
2010-Jun-21 12:00N 86°02' E 060°10'0 0.3 1017.0 -25.4
2010-Jun-21 11:00N 86°03' E 060°12'0 0.3 1017.8 -24.4
2010-Jun-21 10:00N 86°03' E 060°14'0 0.2 1018.3 -24.9
2010-Jun-21 09:00N 86°03' E 060°15'0 0.2 1018.7 -25.4
2010-Jun-21 08:00N 86°03' E 060°17'0 0.2 1019.2 -25.1
2010-Jun-21 07:00N 86°03' E 060°19'0 0.2 1019.5 -23.9
2010-Jun-21 06:00N 86°04' E 060°20'0 0.2 1019.9 -23.3
2010-Jun-21 05:00N 86°04' E 060°22'0 0.2 1020.0 -23.4
2010-Jun-21 04:00N 86°04' E 060°24'0 0.1 1020.4 -23.9
2010-Jun-21 03:00N 86°04' E 060°25'0 0.2 1020.6 -24.2
2010-Jun-21 02:00N 86°04' E 060°27'0 0.1 1020.7 -24.6
2010-Jun-21 01:00N 86°04' E 060°29'0 0.2 1020.8 -25.1
2010-Jun-21 00:00N 86°04' E 060°30'0 0.1 1020.8 -25.7
2010-Jun-20 23:00N 86°04' E 060°31'0 0.1 1020.8 -26.6
2010-Jun-20 22:00N 86°04' E 060°33'0 0.1 1021.0 -26.6
2010-Jun-20 21:00N 86°04' E 060°34'0 0.1 1021.0 -26.6
2010-Jun-20 20:00N 86°04' E 060°35'0 0.1 1020.8 -26.6
2010-Jun-20 19:00N 86°04' E 060°37'0 0.1 1020.8 -26.6
2010-Jun-20 18:00N 86°05' E 060°38'0 0.1 1020.6 -26.6
2010-Jun-20 17:00N 86°05' E 060°40'0 0.1 1020.7 -26.6
2010-Jun-20 16:00N 86°05' E 060°42'0 0.1 1020.8 -26.6
2010-Jun-20 15:00N 86°05' E 060°43'0 0.1 1020.9 -26.6
2010-Jun-20 14:00N 86°05' E 060°45'0 0.1 1020.9 -26.6
2010-Jun-20 13:00N 86°05' E 060°47'0 0.1 1021.0 -26.6
2010-Jun-20 12:00N 86°05' E 060°49'0 0.1 1021.0 -26.0
2010-Jun-20 11:00N 86°05' E 060°50'0 0.1 1020.8 -25.7
2010-Jun-20 10:00N 86°05' E 060°52'0 0.1 1020.7 -25.2
2010-Jun-20 09:00N 86°05' E 060°54'0 0.1 1020.6 -25.0
2010-Jun-20 08:00N 86°05' E 060°55'0 0.1 1020.5 -24.6
2010-Jun-20 07:00N 86°05' E 060°57'0 0.1 1020.5 -23.9
2010-Jun-20 06:00N 86°05' E 060°59'0 0.2 1020.5 -23.6
2010-Jun-20 05:00N 86°05' E 061°01'0 0.2 1020.4 -23.8
2010-Jun-20 04:00N 86°05' E 061°03'0 0.2 1020.3 -24.4
2010-Jun-20 03:00N 86°05' E 061°05'0 0.2 1020.4 -25.1
2010-Jun-20 02:00N 86°05' E 061°08'0 0.2 1020.2 -26.4
2010-Jun-20 00:00N 86°04' E 061°13'0 0.2 1020.3 -26.6
2010-Jun-19 23:00N 86°04' E 061°15'0 0.2 1020.3 -26.6
2010-Jun-19 22:00N 86°04' E 061°17'0 0.1 1020.3 26.6
2010-Jun-19 21:00N 86°04' E 061°19'0 0.2 1020.3 -26.6
2010-Jun-19 20:00N 86°04' E 061°21'0 0.2 1020.4 -26.6
2010-Jun-19 19:00N 86°04' E 061°24'0 0.2 1020.4 -26.6
2010-Jun-19 18:00N 86°04' E 061°26'0 0.2 1020.4 26.6
2010-Jun-19 17:00N 86°04' E 061°29'0 0.2 1020.6 26.6
2010-Jun-19 16:00N 86°04' E 061°32'0 0.2 1020.6 -26.1
2010-Jun-19 15:00N 86°04' E 061°35'0 0.3 1020.7 -26.4
2010-Jun-19 14:00N 86°04' E 061°39'0 0.2 1020.8 -25.9
2010-Jun-19 13:00N 86°04' E 061°42'0 0.3 1020.8 25.8
2010-Jun-19 12:00N 86°03' E 061°45'0 0.2 1021.2 -25.9
2010-Jun-19 10:00N 86°03' E 061°51'0 0.2 1021.1 -25.9
2010-Jun-19 09:00N 86°03' E 061°55'0 0.2 1021.4 -25.8
2010-Jun-19 08:00N 86°03' E 061°58'1 0.3 1021.2 -25.9
2010-Jun-19 06:00N 86°03' E 062°05'0 0.3 1021.4 -25.9
2010-Jun-19 05:00N 86°03' E 062°08'0 0.3 1021.3 -25.8
2010-Jun-19 04:00N 86°03' E 062°11'0 0.3 1021.3 -26.0
2010-Jun-19 03:00N 86°02' E 062°15'0 0.3 1021.2 -26.1
2010-Jun-19 02:00N 86°02' E 062°19'0 0.3 1021.3 -26.0
2010-Jun-19 01:00N 86°02' E 062°22'0 0.3 1021.3 -26.0
2010-Jun-19 00:00N 86°02' E 062°26'0 0.3 1021.4 -26.0
2010-Jun-18 23:00N 86°02' E 062°29'0 0.2 1021.4 -26.1
2010-Jun-18 22:00N 86°02' E 062°32'0 0.3 1021.2 -26.2
2010-Jun-18 21:00N 86°02' E 062°35'0 0.2 1021.5 -26.1
2010-Jun-18 20:00N 86°02' E 062°39'0 0.3 1021.3 -26.1
2010-Jun-18 19:00N 86°02' E 062°42'0 0.2 1021.3 26.3
2010-Jun-18 18:00N 86°02' E 062°46'   1021.0 -26.2
Track history (hours):
 
Tides and Currents Weather Stations Pressure Air Temp Water Temp Dewpoint Dewpoint Depression Visibility Wind Speed Wind Dir Waves Ship Positions

Drifting buoy 25593

Last reported at 2010-Jun-28 18:00 UTC. Time now 2020-Jan-20 21:04 UTC.
Position N 85°49' E 049°50'.
Warning: this ship's position is years out of date!

Barometer 1019.3 mb
Air temperature -26.3 ° C

Date/timePositionNaut miles runAvg speedWind from/ knotsBaromVisibWave heightAir tempDewpointWater temp
2010-Jun-28 18:00N 85°49' E 049°50'1 0.6 1019.3 -26.3
2010-Jun-28 17:00N 85°49' E 049°55'0 0.3 1019.2 -26.3
2010-Jun-28 16:00N 85°49' E 049°57'0 0.3 1019.2 -26.3
2010-Jun-28 15:00N 85°49' E 050°00'0 0.3 1019.0 -26.3
2010-Jun-28 14:00N 85°49' E 050°04'0 0.3 1019.1 -26.3
2010-Jun-28 13:00N 85°50' E 050°08'0 0.3 1018.9 -26.3
2010-Jun-28 12:00N 85°50' E 050°12'0 0.3 1019.0 -26.4
2010-Jun-28 11:00N 85°50' E 050°16'0 0.3 1019.1 -26.5
2010-Jun-28 10:00N 85°50' E 050°20'0 0.3 1018.9 26.5
2010-Jun-28 09:00N 85°50' E 050°25'0 0.3 1018.6 -26.4
2010-Jun-28 08:00N 85°50' E 050°29'0 0.3 1018.6 -26.4
2010-Jun-28 07:00N 85°50' E 050°33'0 0.3 1018.5 -26.2
2010-Jun-28 06:00N 85°50' E 050°38'1 0.3 1018.5 -26.1
2010-Jun-28 04:00N 85°50' E 050°45'0 0.3 1018.8 -26.1
2010-Jun-28 03:00N 85°50' E 050°49'0 0.3 1018.9 -26.2
2010-Jun-28 02:00N 85°51' E 050°53'0 0.3 1019.0 -26.4
2010-Jun-28 01:00N 85°51' E 050°56'0 0.3 1019.1 -26.4
2010-Jun-28 00:00N 85°51' E 050°60'0 0.3 1019.4 26.3
2010-Jun-27 23:00N 85°51' E 051°04'0 0.3 1019.4 -26.3
2010-Jun-27 22:00N 85°51' E 051°08'0 0.3 1019.6 -26.2
2010-Jun-27 21:00N 85°51' E 051°11'0 0.3 1019.7 -26.3
2010-Jun-27 20:00N 85°51' E 051°15'0 0.3 1019.8 -26.5
2010-Jun-27 19:00N 85°51' E 051°19'0 0.3 1020.0 -26.5
2010-Jun-27 18:00N 85°51' E 051°23'0 0.3 1019.9 -26.6
2010-Jun-27 17:00N 85°51' E 051°26'0 0.3 1020.1 -26.5
2010-Jun-27 16:00N 85°51' E 051°29'0 0.3 1020.2 -26.3
2010-Jun-27 15:00N 85°52' E 051°33'0 0.2 1020.3 26.3
2010-Jun-27 14:00N 85°52' E 051°36'0 0.3 1020.2 -26.3
2010-Jun-27 13:00N 85°52' E 051°39'0 0.3 1020.2 -26.4
2010-Jun-27 12:00N 85°52' E 051°43'0 0.3 1020.3 -26.2
2010-Jun-27 11:00N 85°52' E 051°46'0 0.3 1020.4 -26.0
2010-Jun-27 10:00N 85°52' E 051°50'0 0.3 1020.5 25.9
2010-Jun-27 09:00N 85°52' E 051°54'0 0.3 1020.3 -25.8
2010-Jun-27 08:00N 85°52' E 051°57'0 0.3 1020.3 -25.3
2010-Jun-27 07:00N 85°52' E 052°01'0 0.5 1020.4 -25.3
2010-Jun-27 06:00N 85°53' E 052°07'0 0.1 1020.3 -25.5
2010-Jun-27 05:00N 85°53' E 052°08'0 0.3 1020.4 -25.6
2010-Jun-27 04:00N 85°53' E 052°12'0 0.3 1020.4 -25.7
2010-Jun-27 03:00N 85°53' E 052°15'0 0.3 1020.6 -25.6
2010-Jun-27 02:00N 85°53' E 052°19'0 0.3 1020.8 -25.5
2010-Jun-27 01:00N 85°53' E 052°22'0 0.3 1020.8 -25.4
2010-Jun-27 00:00N 85°53' E 052°26'0 0.3 1020.6 -25.3
2010-Jun-26 23:00N 85°53' E 052°30'0 0.3 1020.6 -25.2
2010-Jun-26 22:00N 85°53' E 052°34'0 0.3 1020.5 -25.1
2010-Jun-26 21:00N 85°54' E 052°38'0 0.3 1020.3 -24.8
2010-Jun-26 20:00N 85°54' E 052°42'0 0.3 1020.2 25.2
2010-Jun-26 19:00N 85°54' E 052°46'0 0.3 1020.0 -25.5
2010-Jun-26 18:00N 85°54' E 052°50'1 0.6 1019.9 -25.8
2010-Jun-26 17:00N 85°54' E 052°56'0 0.2 1019.7 -26.0
2010-Jun-26 16:00N 85°54' E 052°57'0 0.3 1019.5 -26.1
2010-Jun-26 15:00N 85°54' E 053°01'0 0.3 1019.5 -26.2
2010-Jun-26 14:00N 85°54' E 053°05'0 0.3 1019.2 -26.6
2010-Jun-26 13:00N 85°55' E 053°08'2 0.3 1019.1 -26.2
2010-Jun-26 06:00N 85°56' E 053°32'0 0.0 1017.8 -26.0
2010-Jun-26 05:00N 85°56' E 053°32'1 0.2 1017.7 -26.0
2010-Jun-26 01:00N 85°56' E 053°41'0 0.2 1017.1 -26.2
2010-Jun-26 00:00N 85°57' E 053°44'1212.2 1016.6 -26.1
2010-Jun-25 23:00N 85°44' E 053°46'1212.4 1016.5 -26.2
2010-Jun-25 22:00N 85°57' E 053°49'0 0.2 1016.3 -26.1
2010-Jun-25 21:00N 85°57' E 053°52'0 0.2 1016.2 -26.2
2010-Jun-25 20:00N 85°57' E 053°55'0 0.2 1015.6 -26.2
2010-Jun-25 19:00N 85°57' E 053°58'0 0.2 1015.2 -26.1
2010-Jun-25 18:00N 85°57' E 054°01'0 0.2 1014.8 -26.1
2010-Jun-25 17:00N 85°57' E 054°03'0 0.2 1014.8 -26.1
2010-Jun-25 16:00N 85°57' E 054°06'0 0.2 1014.4 26.0
2010-Jun-25 15:00N 85°57' E 054°09'0 0.2 1014.3 -25.9
2010-Jun-25 14:00N 85°57' E 054°11'0 0.2 1014.0 -25.7
2010-Jun-25 13:00N 85°57' E 054°14'0 0.2 1013.7 -25.6
2010-Jun-25 12:00N 85°57' E 054°16'0 0.2 1013.5 -25.4
2010-Jun-25 11:00N 85°57' E 054°19'0 0.2 1013.0 -25.5
2010-Jun-25 10:00N 85°58' E 054°22'0 0.2 1012.7 -25.4
2010-Jun-25 09:00N 85°58' E 054°24'0 0.2 1012.2 25.4
2010-Jun-25 08:00N 85°58' E 054°27'0 0.2 1011.8 -25.2
2010-Jun-25 07:00N 85°58' E 054°30'0 0.2 1011.2 -25.3
2010-Jun-25 06:00N 85°58' E 054°32'0 0.2 1010.9 -25.6
2010-Jun-25 05:00N 85°58' E 054°35'0 0.2 1010.6 -25.8
2010-Jun-25 04:00N 85°58' E 054°37'0 0.2 1010.1 -25.9
2010-Jun-25 03:00N 85°58' E 054°40'0 0.2 1010.0 -26.0
2010-Jun-25 02:00N 85°58' E 054°42'0 0.2 1009.8 -26.1
2010-Jun-25 01:00N 85°58' E 054°44'0 0.2 1009.5 -26.2
2010-Jun-25 00:00N 85°58' E 054°46'0 0.1 1009.2 -26.2
2010-Jun-24 23:00N 85°58' E 054°48'0 0.2 1009.1 -26.2
2010-Jun-24 22:00N 85°58' E 054°50'0 0.2 1008.9 -26.2
2010-Jun-24 21:00N 85°58' E 054°52'0 0.2 1008.7 -26.3
2010-Jun-24 20:00N 85°58' E 054°54'0 0.2 1008.5 -26.3
2010-Jun-24 19:00N 85°58' E 054°57'0 0.2 1008.3 -26.3
2010-Jun-24 18:00N 85°58' E 054°60'0 0.2 1008.0 -26.3
2010-Jun-24 17:00N 85°58' E 055°02'0 0.2 1007.9 -26.4
2010-Jun-24 16:00N 85°59' E 055°05'0 0.2 1008.0 -26.4
2010-Jun-24 15:00N 85°59' E 055°08'0 0.2 1008.0 26.4
2010-Jun-24 14:00N 85°59' E 055°11'0 0.2 1007.9 -26.3
2010-Jun-24 13:00N 85°59' E 055°13'0 0.3 1007.7 -26.4
2010-Jun-24 12:00N 85°59' E 055°16'0 0.2 1007.8 -26.3
2010-Jun-24 11:00N 85°59' E 055°19'1 0.3 1007.6 -26.3
2010-Jun-24 09:00N 85°59' E 055°26'0 0.3 1007.4 -26.6
2010-Jun-24 08:00N 85°59' E 055°30'0 0.3 1007.1 -26.6
2010-Jun-24 07:00N 85°59' E 055°35'0 0.3 1006.9 -26.6
2010-Jun-24 06:00N 85°60' E 055°39'1 0.3 1006.7 -26.6
2010-Jun-24 04:00N 85°60' E 055°48'0 0.3 1006.9 -26.6
2010-Jun-24 03:00N 85°60' E 055°52'0 0.3 1007.1 -26.6
2010-Jun-24 02:00N 86°00' E 055°56'0 0.3 1007.3 -26.6
2010-Jun-24 01:00N 86°00' E 055°59'0 0.3 1007.8 -26.6
2010-Jun-24 00:00N 86°00' E 056°03'0 0.3 1008.3 -26.6
2010-Jun-23 23:00N 86°00' E 056°06'1 0.3 1008.8 -26.6
2010-Jun-23 21:00N 86°01' E 056°14'0 0.3 1009.9 -26.6
2010-Jun-23 20:00N 86°01' E 056°17'0 0.3 1010.4 -26.6
2010-Jun-23 19:00N 86°01' E 056°21'0 0.3 1010.2 -26.6
2010-Jun-23 18:00N 86°01' E 056°25'0 0.3 1010.4 -26.6
2010-Jun-23 17:00N 86°01' E 056°30'0 0.3 1010.7 -26.6
2010-Jun-23 16:00N 86°01' E 056°34'0 0.3 1010.9 -26.6
2010-Jun-23 15:00N 86°01' E 056°38'0 0.3 1011.2 -26.6
2010-Jun-23 14:00N 86°02' E 056°42'0 0.3 1011.4 -26.6
2010-Jun-23 13:00N 86°02' E 056°46'1 0.3 1011.5 -26.6
2010-Jun-23 11:00N 86°02' E 056°53'0 0.2 1011.9 -26.3
2010-Jun-23 10:00N 86°02' E 056°57'0 0.3 1011.9 -26.2
2010-Jun-23 09:00N 86°02' E 057°00'0 0.2 1012.3 -26.6
2010-Jun-23 08:00N 86°02' E 057°04'0 0.2 1012.6 -25.8
2010-Jun-23 06:00N 86°02' E 057°10'0 0.2 1012.7 -25.0
2010-Jun-23 05:00N 86°02' E 057°13'0 0.2 1012.8 -24.8
2010-Jun-23 04:00N 86°02' E 057°16'0 0.2 1012.7 -25.0
2010-Jun-23 03:00N 86°02' E 057°18'0 0.2 1012.9 -25.4
2010-Jun-23 02:00N 86°02' E 057°21'0 0.2 1013.1 -26.1
2010-Jun-23 01:00N 86°02' E 057°24'0 0.2 1012.9 -26.2
2010-Jun-22 23:00N 86°02' E 057°29'0 0.2 1012.6 -26.6
2010-Jun-22 22:00N 86°02' E 057°31'0 0.2 1012.4 -26.6
2010-Jun-22 21:00N 86°02' E 057°34'0 0.2 1012.0 -26.6
2010-Jun-22 20:00N 86°02' E 057°37'0 0.3 1011.7 -26.6
2010-Jun-22 19:00N 86°02' E 057°40'0 0.3 1011.3 -26.6
2010-Jun-22 18:00N 86°01' E 057°44'0 0.3 1011.0 -26.6
2010-Jun-22 17:00N 86°01' E 057°49'0 0.4 1010.6 -26.6
2010-Jun-22 16:00N 86°01' E 057°53'0 0.4 1010.2 -26.6
2010-Jun-22 15:00N 86°01' E 057°58'0 0.4 1009.9 -26.6
2010-Jun-22 14:00N 86°01' E 058°03'0 0.4 1009.5 -26.5
2010-Jun-22 13:00N 86°00' E 058°08'439219.7 1009.2 -26.3
2010-Jun-22 11:00N 86°00' E 163°10'439438.6 1008.7 -26.2
2010-Jun-22 10:00N 85°60' E 058°25'0 0.5 1008.5 -26.1
2010-Jun-22 09:00N 85°60' E 058°31'0 0.5 1008.6 -26.1
2010-Jun-22 08:00N 85°60' E 058°38'0 0.5 1008.7 -26.2
2010-Jun-22 07:00N 85°60' E 058°45'0 0.5 1008.8 -26.2
2010-Jun-22 06:00N 85°60' E 058°51'0 0.5 1009.1 -26.5
2010-Jun-22 05:00N 85°60' E 058°58'0 0.4 1009.3 -26.4
2010-Jun-22 04:00N 85°60' E 059°04'0 0.4 1009.5 -26.2
2010-Jun-22 03:00N 85°60' E 059°10'0 0.4 1009.8 -25.8
2010-Jun-22 02:00N 85°60' E 059°16'0 0.3 1010.1 -25.8
2010-Jun-22 01:00N 85°60' E 059°21'0 0.3 1010.2 -26.0
2010-Jun-22 00:00N 85°60' E 059°25'0 0.3 1010.3 -26.2
2010-Jun-21 23:00N 85°60' E 059°30'0 0.3 1010.5 -26.2
2010-Jun-21 22:00N 85°60' E 059°34'0 0.3 1010.6 -26.2
2010-Jun-21 21:00N 85°60' E 059°39'0 0.4 1010.8 -26.3
2010-Jun-21 20:00N 85°60' E 059°44'0 0.4 1011.1 -26.5
2010-Jun-21 19:00N 86°00' E 059°48'1 0.4 1011.4 -26.6
2010-Jun-21 17:00N 86°01' E 059°56'0 0.4 1012.4 -26.6
2010-Jun-21 16:00N 86°01' E 059°59'0 0.4 1013.5 -26.6
2010-Jun-21 15:00N 86°02' E 060°02'1 0.4 1014.5 -26.6
2010-Jun-21 13:00N 86°02' E 060°07'0 0.3 1016.2 -25.8
2010-Jun-21 12:00N 86°02' E 060°10'0 0.3 1017.0 -25.4
2010-Jun-21 11:00N 86°03' E 060°12'0 0.3 1017.8 -24.4
2010-Jun-21 10:00N 86°03' E 060°14'0 0.2 1018.3 -24.9
2010-Jun-21 09:00N 86°03' E 060°15'0 0.2 1018.7 -25.4
2010-Jun-21 08:00N 86°03' E 060°17'0 0.2 1019.2 -25.1
2010-Jun-21 07:00N 86°03' E 060°19'0 0.2 1019.5 -23.9
2010-Jun-21 06:00N 86°04' E 060°20'0 0.2 1019.9 -23.3
2010-Jun-21 05:00N 86°04' E 060°22'0 0.2 1020.0 -23.4
2010-Jun-21 04:00N 86°04' E 060°24'0 0.1 1020.4 -23.9
2010-Jun-21 03:00N 86°04' E 060°25'0 0.2 1020.6 -24.2
2010-Jun-21 02:00N 86°04' E 060°27'0 0.1 1020.7 -24.6
2010-Jun-21 01:00N 86°04' E 060°29'0 0.2 1020.8 -25.1
2010-Jun-21 00:00N 86°04' E 060°30'0 0.1 1020.8 -25.7
2010-Jun-20 23:00N 86°04' E 060°31'0 0.1 1020.8 -26.6
2010-Jun-20 22:00N 86°04' E 060°33'0 0.1 1021.0 -26.6
2010-Jun-20 21:00N 86°04' E 060°34'0 0.1 1021.0 -26.6
2010-Jun-20 20:00N 86°04' E 060°35'0 0.1 1020.8 -26.6
2010-Jun-20 19:00N 86°04' E 060°37'0 0.1 1020.8 -26.6
2010-Jun-20 18:00N 86°05' E 060°38'0 0.1 1020.6 -26.6
2010-Jun-20 17:00N 86°05' E 060°40'0 0.1 1020.7 -26.6
2010-Jun-20 16:00N 86°05' E 060°42'0 0.1 1020.8 -26.6
2010-Jun-20 15:00N 86°05' E 060°43'0 0.1 1020.9 -26.6
2010-Jun-20 14:00N 86°05' E 060°45'0 0.1 1020.9 -26.6
2010-Jun-20 13:00N 86°05' E 060°47'0 0.1 1021.0 -26.6
2010-Jun-20 12:00N 86°05' E 060°49'0 0.1 1021.0 -26.0
2010-Jun-20 11:00N 86°05' E 060°50'0 0.1 1020.8 -25.7
2010-Jun-20 10:00N 86°05' E 060°52'0 0.1 1020.7 -25.2
2010-Jun-20 09:00N 86°05' E 060°54'0 0.1 1020.6 -25.0
2010-Jun-20 08:00N 86°05' E 060°55'0 0.1 1020.5 -24.6
2010-Jun-20 07:00N 86°05' E 060°57'0 0.1 1020.5 -23.9
2010-Jun-20 06:00N 86°05' E 060°59'0 0.2 1020.5 -23.6
2010-Jun-20 05:00N 86°05' E 061°01'0 0.2 1020.4 -23.8
2010-Jun-20 04:00N 86°05' E 061°03'0 0.2 1020.3 -24.4
2010-Jun-20 03:00N 86°05' E 061°05'0 0.2 1020.4 -25.1
2010-Jun-20 02:00N 86°05' E 061°08'0 0.2 1020.2 -26.4
2010-Jun-20 00:00N 86°04' E 061°13'0 0.2 1020.3 -26.6
2010-Jun-19 23:00N 86°04' E 061°15'0 0.2 1020.3 -26.6
2010-Jun-19 22:00N 86°04' E 061°17'0 0.1 1020.3 26.6
2010-Jun-19 21:00N 86°04' E 061°19'0 0.2 1020.3 -26.6
2010-Jun-19 20:00N 86°04' E 061°21'0 0.2 1020.4 -26.6
2010-Jun-19 19:00N 86°04' E 061°24'0 0.2 1020.4 -26.6
2010-Jun-19 18:00N 86°04' E 061°26'0 0.2 1020.4 26.6
2010-Jun-19 17:00N 86°04' E 061°29'0 0.2 1020.6 26.6
2010-Jun-19 16:00N 86°04' E 061°32'0 0.2 1020.6 -26.1
2010-Jun-19 15:00N 86°04' E 061°35'0 0.3 1020.7 -26.4
2010-Jun-19 14:00N 86°04' E 061°39'0 0.2 1020.8 -25.9
2010-Jun-19 13:00N 86°04' E 061°42'0 0.3 1020.8 25.8
2010-Jun-19 12:00N 86°03' E 061°45'0 0.2 1021.2 -25.9
2010-Jun-19 10:00N 86°03' E 061°51'0 0.2 1021.1 -25.9
2010-Jun-19 09:00N 86°03' E 061°55'0 0.2 1021.4 -25.8
2010-Jun-19 08:00N 86°03' E 061°58'1 0.3 1021.2 -25.9
2010-Jun-19 06:00N 86°03' E 062°05'0 0.3 1021.4 -25.9
2010-Jun-19 05:00N 86°03' E 062°08'0 0.3 1021.3 -25.8
2010-Jun-19 04:00N 86°03' E 062°11'0 0.3 1021.3 -26.0
2010-Jun-19 03:00N 86°02' E 062°15'0 0.3 1021.2 -26.1
2010-Jun-19 02:00N 86°02' E 062°19'0 0.3 1021.3 -26.0
2010-Jun-19 01:00N 86°02' E 062°22'0 0.3 1021.3 -26.0
2010-Jun-19 00:00N 86°02' E 062°26'0 0.3 1021.4 -26.0
2010-Jun-18 23:00N 86°02' E 062°29'0 0.2 1021.4 -26.1
2010-Jun-18 22:00N 86°02' E 062°32'0 0.3 1021.2 -26.2
2010-Jun-18 21:00N 86°02' E 062°35'0 0.2 1021.5 -26.1
2010-Jun-18 20:00N 86°02' E 062°39'0 0.3 1021.3 -26.1
2010-Jun-18 19:00N 86°02' E 062°42'0 0.2 1021.3 26.3
2010-Jun-18 18:00N 86°02' E 062°46'   1021.0 -26.2

Dump ship's entire track history